Donalda, Canada
Current Conditions -  °F | °C
As of 10:00 PM on Saturday 25 Oct 2014 (Local Time) from CYQF Reporting Station
Broken Clouds Broken Clouds  
Wind Chill: 32°   Ceiling: 23000
Heat Index: 39°   Visibility: 15mi
Dew Point: 25°   Wind: 10mph
Humidity: 56%   Direction: 160°SSE
Pressure: 29.46"   Gusts: NA
Location:  52.58°N, 112.57°W
Report Text: CYQF 260400Z 16009KT 15SM BKN230 04/M04 A2946 RMK CI5 SLP006
Loading
Personal Weather Stations






























Interactive Weather Map
Tropical Storm Tracking
New forecast layout! Learn more

10-Day Weather Forecast

Advertisements
Track Severe Weather on mobile